Terminal Aerodrome Forecast
Issued by NWS Mt. Holly, NJ

Home | Current Version | Previous Version | Text Only | Print | Product List | Glossary On
Versions: 1 2 3 4 5 6 7 8 9 10 11 12 13 14 15 16 17 18 19 20 21 22 23
000
FTUS41 KPHI 181700
TAFRDG
TAF
KRDG 181726Z 1818/1918 26012G20KT P6SM OVC040
     FM190200 30011KT P6SM SCT040
     FM191200 30007KT P6SM SCT050
     FM191400 31012KT P6SM SKC=

USA.gov is the U.S. government's official web portal to all federal, state and local government web resources and services.